Accueil
METAR-TAF:

METAR-TAF

Aéroports :

Malabo, Guinée équatoriale

Aéroport de Malabo

latitude: 03-45-18N, longitude: 08-42-31E, altitude: 23 m

Observation

Le bulletin a été fait il y a 1 heure et 18 minutes, à 04:00 UTC
Vent 4 kt de nord-ouest, variant entre ouest et nord
Température 24°C
Humidité 94%
Pression 1011 hPa
Visibilité: 4000 m
Nuages fragmentés à une hauteur de 800 ft
Nuages épars à une hauteur de 2000 ft, Cumulonimbus.
Nuages fragmentés à une hauteur de 4000 ft
orage, pluie

METAR: FGSL 260400Z 31004KT 270V360 4000 TSRA BKN008 SCT020CB BKN040 24/23 Q1011 BECMG 8000 -TSRA SCT008 FEW020CB BKN040

Heure: 06:18 (05:18 UTC)


TAF: absent

Observations et prévisions météorologiques de plus de 4000 aéroports (messages METAR et TAF).

Les stations disponibles sont représentées par des disques jaunes et rouges sur la carte.

Passer la souris dessus pour voir le nom de la station.

Cliquer dessus pour voir les observations et prévisions météorologiques.

Pour changer de carte: cliquez sur les boutons verts avec une croix noire pour zoomer, sur le bouton vert avec un tiret pour effectuer un zoom arrière, ou sur les flèches vertes pour les cartes adjacentes.


METAR-TAF: